createdAt,value
2022-12-23T00:01:51.140Z,10.00
2022-12-23T00:04:18.091Z,10.00
2022-12-23T00:06:45.029Z,9.90
2022-12-23T00:09:11.764Z,9.90
2022-12-23T00:11:58.503Z,9.80
2022-12-23T00:14:44.198Z,9.80
2022-12-23T00:17:22.176Z,9.80
2022-12-23T00:19:49.820Z,9.80
2022-12-23T00:22:16.685Z,9.70
2022-12-23T00:24:43.591Z,9.60
2022-12-23T00:27:10.363Z,9.70
2022-12-23T00:29:37.133Z,9.60
2022-12-23T00:32:04.070Z,9.60
2022-12-23T00:34:31.018Z,9.50
2022-12-23T00:36:57.776Z,9.50
2022-12-23T00:39:43.335Z,9.40
2022-12-23T00:42:28.813Z,9.40
2022-12-23T00:45:15.556Z,9.30
2022-12-23T00:48:02.088Z,9.20
2022-12-23T00:50:29.479Z,9.20
2022-12-23T00:52:56.556Z,9.20
2022-12-23T00:55:23.382Z,9.30
2022-12-23T00:57:50.130Z,9.20
2022-12-23T01:00:17.282Z,9.20
2022-12-23T01:03:02.672Z,9.20
2022-12-23T01:05:38.374Z,9.10
2022-12-23T01:08:09.364Z,9.10
2022-12-23T01:10:39.399Z,9.10
2022-12-23T01:13:06.600Z,9.10
2022-12-23T01:15:34.480Z,9.00
2022-12-23T01:18:01.214Z,9.00
2022-12-23T01:20:28.010Z,9.00
2022-12-23T01:22:54.714Z,8.90
2022-12-23T01:25:21.546Z,8.90
2022-12-23T01:27:48.282Z,8.90
2022-12-23T01:30:15.135Z,8.80
2022-12-23T01:32:41.901Z,8.80
2022-12-23T01:35:08.729Z,8.80
2022-12-23T01:37:35.529Z,8.80
2022-12-23T01:40:02.323Z,8.70
2022-12-23T01:42:44.087Z,8.70
2022-12-23T01:45:18.907Z,8.70
2022-12-23T01:47:51.601Z,8.60
2022-12-23T01:50:18.421Z,8.60
2022-12-23T01:52:50.578Z,8.60
2022-12-23T01:55:19.231Z,8.60
2022-12-23T01:57:45.978Z,8.50
2022-12-23T02:00:31.564Z,8.50
2022-12-23T02:03:17.061Z,8.50
2022-12-23T02:05:45.220Z,8.50
2022-12-23T02:08:31.469Z,8.50
2022-12-23T02:11:14.951Z,8.40
2022-12-23T02:14:23.706Z,8.40
2022-12-23T02:17:02.348Z,8.30
2022-12-23T02:19:53.327Z,8.30
2022-12-23T02:22:39.378Z,8.30
2022-12-23T02:25:23.016Z,8.30
2022-12-23T02:28:08.156Z,8.20
2022-12-23T02:30:47.106Z,8.20
2022-12-23T02:33:23.081Z,8.20
2022-12-23T02:36:37.458Z,8.20
2022-12-23T02:39:11.982Z,8.10
2022-12-23T02:41:59.271Z,8.00
2022-12-23T02:44:41.032Z,8.00
2022-12-23T02:47:12.729Z,8.00
2022-12-23T02:49:41.198Z,8.00
2022-12-23T02:52:12.589Z,8.00
2022-12-23T02:54:44.206Z,8.00
2022-12-23T02:57:11.535Z,8.00
2022-12-23T02:59:43.942Z,7.90
2022-12-23T03:02:10.937Z,7.80
2022-12-23T03:04:38.193Z,7.80
2022-12-23T03:07:08.039Z,7.90
2022-12-23T03:09:48.056Z,7.80
2022-12-23T03:12:27.553Z,7.80
2022-12-23T03:15:19.377Z,7.80
2022-12-23T03:18:06.207Z,7.80
2022-12-23T03:20:51.071Z,7.70
2022-12-23T03:23:32.449Z,7.80
2022-12-23T03:26:02.034Z,7.80
2022-12-23T03:28:31.799Z,7.80
2022-12-23T03:30:59.512Z,7.80
2022-12-23T03:33:28.532Z,7.80
2022-12-23T03:35:59.070Z,7.80
2022-12-23T03:38:25.816Z,7.80
2022-12-23T03:40:54.909Z,7.80
2022-12-23T03:43:27.567Z,7.80
2022-12-23T03:45:56.737Z,7.80
2022-12-23T03:48:41.295Z,7.70
2022-12-23T03:51:16.847Z,7.70
2022-12-23T03:53:52.046Z,7.60
2022-12-23T03:56:23.192Z,7.50
2022-12-23T03:58:58.684Z,7.50
2022-12-23T04:01:42.874Z,7.50
2022-12-23T04:04:14.963Z,7.50
2022-12-23T04:07:10.665Z,7.50
2022-12-23T04:09:37.469Z,7.40
2022-12-23T04:12:04.557Z,7.40
2022-12-23T04:14:31.447Z,7.40
2022-12-23T04:17:00.895Z,7.40
2022-12-23T04:19:27.818Z,7.40
2022-12-23T04:21:55.541Z,7.40
2022-12-23T04:24:22.430Z,7.40
2022-12-23T04:26:49.163Z,7.40
2022-12-23T04:29:16.016Z,7.30
2022-12-23T04:31:42.897Z,7.30
2022-12-23T04:34:09.812Z,7.20
2022-12-23T04:36:36.607Z,7.10
2022-12-23T04:39:03.466Z,7.10
2022-12-23T04:41:30.243Z,7.10
2022-12-23T04:43:57.021Z,7.10
2022-12-23T04:46:23.914Z,7.20
2022-12-23T04:48:50.713Z,7.10
2022-12-23T04:51:17.495Z,7.20
2022-12-23T04:53:44.346Z,7.20
2022-12-23T04:56:11.249Z,7.10
2022-12-23T04:58:38.186Z,7.10
2022-12-23T05:01:07.026Z,7.10
2022-12-23T05:03:33.889Z,7.10
2022-12-23T05:06:00.797Z,7.10
2022-12-23T05:08:27.702Z,7.00
2022-12-23T05:10:54.488Z,7.00
2022-12-23T05:13:21.390Z,7.00
2022-12-23T05:15:52.101Z,7.00
2022-12-23T05:18:19.030Z,7.00
2022-12-23T05:20:45.878Z,7.00
2022-12-23T05:23:12.771Z,7.00
2022-12-23T05:25:39.550Z,6.90
2022-12-23T05:28:06.658Z,6.90
2022-12-23T05:30:33.472Z,6.90
2022-12-23T05:33:00.364Z,6.90
2022-12-23T05:35:27.310Z,6.90
2022-12-23T05:37:54.155Z,6.90
2022-12-23T05:40:23.702Z,6.90
2022-12-23T05:42:55.798Z,6.90
2022-12-23T05:45:22.757Z,6.90
2022-12-23T05:47:49.568Z,6.90
2022-12-23T05:50:16.427Z,6.90
2022-12-23T05:52:43.207Z,6.90
2022-12-23T05:55:10.401Z,6.90
2022-12-23T05:57:37.148Z,6.90
2022-12-23T06:00:04.838Z,7.00
2022-12-23T06:02:31.799Z,7.00
2022-12-23T06:04:58.707Z,7.00
2022-12-23T06:07:25.486Z,7.00
2022-12-23T06:09:52.273Z,7.00
2022-12-23T06:12:19.080Z,7.00
2022-12-23T06:14:45.795Z,7.00
2022-12-23T06:17:12.602Z,7.00
2022-12-23T06:19:39.415Z,7.00
2022-12-23T06:22:06.197Z,7.00
2022-12-23T06:24:32.956Z,7.00
2022-12-23T06:26:59.692Z,7.00
2022-12-23T06:29:26.536Z,7.00
2022-12-23T06:31:53.344Z,7.00
2022-12-23T06:34:20.199Z,7.10
2022-12-23T06:36:46.952Z,7.10
2022-12-23T06:39:14.222Z,7.10
2022-12-23T06:41:41.007Z,7.20
2022-12-23T06:44:07.848Z,7.10
2022-12-23T06:46:34.575Z,7.10
2022-12-23T06:49:02.586Z,7.10
2022-12-23T06:51:31.674Z,7.00
2022-12-23T06:53:59.373Z,7.00
2022-12-23T06:56:26.460Z,7.00
2022-12-23T06:58:53.197Z,7.00
2022-12-23T07:01:20.527Z,7.00
2022-12-23T07:03:47.405Z,7.00
2022-12-23T07:06:14.201Z,7.20
2022-12-23T07:08:41.029Z,7.80
2022-12-23T07:11:08.551Z,8.90
2022-12-23T07:13:35.869Z,9.90
2022-12-23T07:16:06.887Z,10.70
2022-12-23T07:18:34.066Z,11.50
2022-12-23T07:21:01.138Z,12.10
2022-12-23T07:23:27.956Z,12.50
2022-12-23T07:25:55.809Z,12.90
2022-12-23T07:28:25.565Z,13.40
2022-12-23T07:30:52.389Z,13.90
2022-12-23T07:33:19.213Z,14.40
2022-12-23T07:35:45.998Z,14.80
2022-12-23T07:38:12.838Z,14.80
2022-12-23T07:40:39.765Z,14.90
2022-12-23T07:43:06.554Z,15.00
2022-12-23T07:45:33.367Z,15.10
2022-12-23T07:48:01.477Z,15.30
2022-12-23T07:50:28.347Z,15.40
2022-12-23T07:52:55.263Z,15.60
2022-12-23T07:55:22.095Z,15.90
2022-12-23T07:57:49.587Z,16.10
2022-12-23T08:00:16.701Z,16.50
2022-12-23T08:02:43.763Z,17.00
2022-12-23T08:05:10.843Z,16.70
2022-12-23T08:07:37.641Z,16.60
2022-12-23T08:10:05.344Z,16.90
2022-12-23T08:12:32.205Z,17.30
2022-12-23T08:14:59.134Z,17.60
2022-12-23T08:17:29.819Z,18.00
2022-12-23T08:19:57.136Z,18.40
2022-12-23T08:22:24.260Z,18.90
2022-12-23T08:24:52.553Z,19.20
2022-12-23T08:27:19.511Z,19.40
2022-12-23T08:29:46.337Z,19.70
2022-12-23T08:32:13.173Z,20.00
2022-12-23T08:34:40.042Z,20.30
2022-12-23T08:37:06.899Z,20.80
2022-12-23T08:39:33.647Z,20.80
2022-12-23T08:42:00.437Z,20.20
2022-12-23T08:44:28.020Z,19.10
2022-12-23T08:46:55.359Z,18.00
2022-12-23T08:49:22.114Z,17.00
2022-12-23T08:51:48.992Z,16.20
2022-12-23T08:54:15.926Z,15.60
2022-12-23T08:56:42.944Z,15.20
2022-12-23T08:59:18.763Z,15.00
2022-12-23T09:01:46.971Z,15.00
2022-12-23T09:04:13.941Z,15.30
2022-12-23T09:06:41.932Z,15.80
2022-12-23T09:09:10.415Z,16.00
2022-12-23T09:11:37.320Z,15.90
2022-12-23T09:14:04.537Z,15.50
2022-12-23T09:16:31.625Z,15.40
2022-12-23T09:18:58.551Z,15.30
2022-12-23T09:21:25.452Z,15.50
2022-12-23T09:23:52.277Z,15.90
2022-12-23T09:26:21.178Z,16.20
2022-12-23T09:28:48.118Z,16.30
2022-12-23T09:31:15.338Z,16.20
2022-12-23T09:33:42.344Z,16.10
2022-12-23T09:36:09.295Z,16.20
2022-12-23T09:38:36.269Z,16.70
2022-12-23T09:41:35.055Z,17.70
2022-12-23T09:44:23.087Z,18.50
2022-12-23T09:46:52.604Z,19.10
2022-12-23T09:49:19.558Z,19.30
2022-12-23T09:51:46.306Z,19.50
2022-12-23T09:54:17.783Z,19.30
2022-12-23T09:56:48.827Z,19.20
2022-12-23T09:59:51.467Z,20.20
2022-12-23T10:02:18.416Z,21.10
2022-12-23T10:05:02.878Z,21.30
2022-12-23T10:07:41.954Z,21.60
2022-12-23T10:10:17.950Z,21.80
2022-12-23T10:12:47.122Z,21.80
2022-12-23T10:15:24.171Z,22.20
2022-12-23T10:17:53.016Z,22.90
2022-12-23T10:20:30.139Z,23.20
2022-12-23T10:22:56.975Z,23.80
2022-12-23T10:25:39.206Z,24.00
2022-12-23T10:28:05.993Z,24.50
2022-12-23T10:30:57.280Z,24.30
2022-12-23T10:33:24.611Z,24.30
2022-12-23T10:36:32.686Z,24.20
2022-12-23T10:39:03.176Z,24.50
2022-12-23T10:41:53.694Z,24.90
2022-12-23T10:44:42.536Z,25.10
2022-12-23T10:47:31.719Z,25.40
2022-12-23T10:50:12.336Z,25.60
2022-12-23T10:52:40.211Z,25.70
2022-12-23T10:55:11.335Z,25.80
2022-12-23T10:57:38.104Z,25.90
2022-12-23T11:00:16.952Z,26.20
2022-12-23T11:03:08.443Z,26.30
2022-12-23T11:05:35.351Z,26.10
2022-12-23T11:08:02.278Z,26.10
2022-12-23T11:10:32.906Z,26.30
2022-12-23T11:13:00.410Z,26.40
2022-12-23T11:15:34.249Z,26.30
2022-12-23T11:18:13.306Z,26.00
2022-12-23T11:20:44.563Z,25.60
2022-12-23T11:23:25.427Z,25.20
2022-12-23T11:26:06.682Z,25.00
2022-12-23T11:28:37.586Z,25.00
2022-12-23T11:31:08.731Z,24.60
2022-12-23T11:33:36.905Z,24.30
2022-12-23T11:36:08.450Z,24.10
2022-12-23T11:38:36.216Z,23.90
2022-12-23T11:41:04.113Z,23.80
2022-12-23T11:43:30.884Z,23.80
2022-12-23T11:46:19.018Z,23.80
2022-12-23T11:48:48.642Z,23.70
2022-12-23T11:51:25.402Z,23.90
2022-12-23T11:53:59.079Z,23.80
2022-12-23T11:56:25.952Z,23.60
2022-12-23T11:59:02.550Z,23.50
2022-12-23T12:01:29.372Z,23.30
2022-12-23T12:03:59.360Z,23.20
2022-12-23T12:06:26.302Z,22.80
2022-12-23T12:08:54.133Z,22.60
2022-12-23T12:11:35.748Z,22.20
2022-12-23T12:14:03.800Z,21.70
2022-12-23T12:16:40.019Z,21.30
2022-12-23T12:19:25.335Z,21.00
2022-12-23T12:21:53.647Z,20.80
2022-12-23T12:24:39.287Z,20.50
2022-12-23T12:27:06.991Z,20.40
2022-12-23T12:29:48.792Z,20.20
2022-12-23T12:32:31.298Z,20.20
2022-12-23T12:35:03.743Z,20.00
2022-12-23T12:37:43.574Z,20.00
2022-12-23T12:40:36.646Z,19.90
2022-12-23T12:43:25.125Z,19.80
2022-12-23T12:46:26.187Z,19.70
2022-12-23T12:49:11.778Z,19.60
2022-12-23T12:51:40.806Z,19.50
2022-12-23T12:54:44.351Z,19.40
2022-12-23T12:57:21.289Z,19.30
2022-12-23T12:59:52.748Z,19.10
2022-12-23T13:02:31.988Z,19.10
2022-12-23T13:05:20.973Z,19.10
2022-12-23T13:08:10.364Z,19.10
2022-12-23T13:10:56.613Z,19.10
2022-12-23T13:13:40.828Z,19.10
2022-12-23T13:16:18.121Z,19.10
2022-12-23T13:19:19.212Z,19.00
2022-12-23T13:22:03.034Z,19.00
2022-12-23T13:24:54.282Z,19.00
2022-12-23T13:27:33.946Z,18.90
2022-12-23T13:30:06.695Z,18.90
2022-12-23T13:32:39.695Z,18.90
2022-12-23T13:35:12.488Z,18.90
2022-12-23T13:37:56.500Z,18.90
2022-12-23T13:40:42.625Z,18.80
2022-12-23T13:43:18.665Z,18.80
2022-12-23T13:45:46.261Z,18.80
2022-12-23T13:48:28.163Z,18.80
2022-12-23T13:51:00.864Z,18.70
2022-12-23T13:53:47.419Z,18.80
2022-12-23T13:56:19.900Z,18.80
2022-12-23T13:58:48.148Z,18.70
2022-12-23T14:01:14.933Z,18.70
2022-12-23T14:03:41.801Z,18.60
2022-12-23T14:06:23.608Z,18.50
2022-12-23T14:08:51.536Z,18.50
2022-12-23T14:11:26.127Z,18.40
2022-12-23T14:14:00.637Z,18.40
2022-12-23T14:16:58.163Z,18.40
2022-12-23T14:19:37.365Z,18.40
2022-12-23T14:22:07.682Z,18.30
2022-12-23T14:24:55.921Z,18.30
2022-12-23T14:27:52.254Z,18.30
2022-12-23T14:30:31.969Z,18.30
2022-12-23T14:33:19.696Z,18.20
2022-12-23T14:35:46.458Z,18.10
2022-12-23T14:38:16.083Z,18.00
2022-12-23T14:40:42.869Z,18.00
2022-12-23T14:43:46.631Z,17.90
2022-12-23T14:46:37.171Z,17.90
2022-12-23T14:49:36.851Z,17.70
2022-12-23T14:51:51.042Z,17.70
2022-12-23T14:54:18.385Z,17.70
2022-12-23T14:56:55.624Z,17.60
2022-12-23T15:00:13.605Z,17.50
2022-12-23T15:02:41.307Z,17.40
2022-12-23T15:05:08.770Z,17.30
2022-12-23T15:07:42.660Z,17.10
2022-12-23T15:10:17.705Z,17.00
2022-12-23T15:12:48.066Z,16.90
2022-12-23T15:15:14.939Z,16.80
2022-12-23T15:17:41.883Z,16.60
2022-12-23T15:20:17.559Z,16.40
2022-12-23T15:22:44.965Z,16.30
2022-12-23T15:25:31.838Z,16.10
2022-12-23T15:28:01.889Z,16.00
2022-12-23T15:30:46.701Z,15.90
2022-12-23T15:33:51.969Z,15.80
2022-12-23T15:36:04.847Z,15.60
2022-12-23T15:38:34.515Z,15.50
2022-12-23T15:41:06.065Z,15.50
2022-12-23T15:43:32.871Z,15.30
2022-12-23T15:46:15.124Z,15.20
2022-12-23T15:48:42.019Z,15.10
2022-12-23T15:51:57.632Z,14.90
2022-12-23T15:54:13.943Z,14.80
2022-12-23T15:56:40.755Z,14.70
2022-12-23T15:59:11.719Z,14.70
2022-12-23T16:01:39.037Z,14.60
2022-12-23T16:04:06.186Z,14.60
2022-12-23T16:06:34.440Z,14.50
2022-12-23T16:09:05.094Z,14.50
2022-12-23T16:11:51.887Z,14.30
2022-12-23T16:14:31.147Z,14.20
2022-12-23T16:17:07.311Z,14.10
2022-12-23T16:19:47.939Z,14.10
2022-12-23T16:22:21.016Z,14.00
2022-12-23T16:24:50.618Z,13.90
2022-12-23T16:27:18.417Z,13.80
2022-12-23T16:29:48.827Z,13.70
2022-12-23T16:32:16.878Z,13.60
2022-12-23T16:34:45.373Z,13.50
2022-12-23T16:37:12.206Z,13.50
2022-12-23T16:39:39.896Z,13.40
2022-12-23T16:42:06.904Z,13.40
2022-12-23T16:44:33.655Z,13.40
2022-12-23T16:47:06.044Z,13.30
2022-12-23T16:49:33.913Z,13.20
2022-12-23T16:52:01.114Z,13.20
2022-12-23T16:54:27.903Z,13.10
2022-12-23T16:56:54.741Z,13.10
2022-12-23T16:59:21.611Z,13.00
2022-12-23T17:01:49.005Z,13.00
2022-12-23T17:04:15.887Z,13.00
2022-12-23T17:06:42.701Z,12.90
2022-12-23T17:09:10.460Z,12.90
2022-12-23T17:11:50.955Z,12.90
2022-12-23T17:14:22.440Z,12.90
2022-12-23T17:16:49.525Z,12.80
2022-12-23T17:19:19.243Z,12.80
2022-12-23T17:21:48.725Z,12.80
2022-12-23T17:24:25.511Z,12.80
2022-12-23T17:26:53.875Z,12.80
2022-12-23T17:29:20.700Z,12.80
2022-12-23T17:31:47.548Z,12.70
2022-12-23T17:34:18.414Z,12.70
2022-12-23T17:36:49.892Z,12.60
2022-12-23T17:39:17.442Z,12.50
2022-12-23T17:41:44.249Z,12.40
2022-12-23T17:44:13.570Z,12.40
2022-12-23T17:46:40.480Z,12.40
2022-12-23T17:49:08.547Z,12.40
2022-12-23T17:51:35.459Z,12.40
2022-12-23T17:54:04.497Z,12.40
2022-12-23T17:56:31.281Z,12.30
2022-12-23T17:58:58.269Z,12.30
2022-12-23T18:01:29.864Z,12.30
2022-12-23T18:03:57.312Z,12.30
2022-12-23T18:06:24.722Z,12.30
2022-12-23T18:08:51.623Z,12.20
2022-12-23T18:11:22.853Z,12.20
2022-12-23T18:13:52.808Z,12.20
2022-12-23T18:16:19.875Z,12.20
2022-12-23T18:18:47.261Z,12.10
2022-12-23T18:21:24.937Z,12.10
2022-12-23T18:23:52.608Z,12.10
2022-12-23T18:26:19.437Z,12.10
2022-12-23T18:28:46.258Z,12.00
2022-12-23T18:31:20.487Z,12.00
2022-12-23T18:33:47.528Z,11.90
2022-12-23T18:36:30.401Z,11.90
2022-12-23T18:38:57.610Z,11.90
2022-12-23T18:41:24.615Z,11.80
2022-12-23T18:43:51.552Z,11.60
2022-12-23T18:46:20.107Z,11.50
2022-12-23T18:48:47.113Z,11.50
2022-12-23T18:51:15.045Z,11.40
2022-12-23T18:53:43.515Z,11.30
2022-12-23T18:56:14.344Z,11.30
2022-12-23T18:58:41.219Z,11.30
2022-12-23T19:01:12.674Z,11.20
2022-12-23T19:03:39.622Z,11.10
2022-12-23T19:06:07.548Z,11.00
2022-12-23T19:08:35.013Z,11.10
2022-12-23T19:11:01.968Z,11.10
2022-12-23T19:13:28.867Z,11.00
2022-12-23T19:15:55.776Z,11.10
2022-12-23T19:18:22.826Z,11.10
2022-12-23T19:20:49.775Z,11.10
2022-12-23T19:23:16.656Z,11.00
2022-12-23T19:25:50.720Z,11.00
2022-12-23T19:28:21.919Z,11.00
2022-12-23T19:30:48.953Z,11.00
2022-12-23T19:33:15.974Z,10.90
2022-12-23T19:35:46.233Z,10.90
2022-12-23T19:38:13.037Z,10.90
2022-12-23T19:40:40.115Z,10.90
2022-12-23T19:43:07.002Z,10.90
2022-12-23T19:45:33.761Z,10.90
2022-12-23T19:48:00.546Z,10.90
2022-12-23T19:50:27.417Z,10.90
2022-12-23T19:52:56.465Z,10.80
2022-12-23T19:55:23.559Z,10.70
2022-12-23T19:57:50.336Z,10.60
2022-12-23T20:00:17.237Z,10.50
2022-12-23T20:02:44.132Z,10.40
2022-12-23T20:05:10.936Z,10.50
2022-12-23T20:07:37.899Z,10.50
2022-12-23T20:10:05.663Z,10.50
2022-12-23T20:12:32.601Z,10.60
2022-12-23T20:14:59.433Z,10.70
2022-12-23T20:17:29.198Z,10.60
2022-12-23T20:19:56.080Z,10.60
2022-12-23T20:22:22.809Z,10.50
2022-12-23T20:24:49.880Z,10.50
2022-12-23T20:27:20.113Z,10.50
2022-12-23T20:29:49.501Z,10.50
2022-12-23T20:32:16.320Z,10.50
2022-12-23T20:34:43.029Z,10.40
2022-12-23T20:37:12.785Z,10.40
2022-12-23T20:39:39.570Z,10.40
2022-12-23T20:42:06.437Z,10.50
2022-12-23T20:44:35.517Z,10.50
2022-12-23T20:47:03.941Z,10.40
2022-12-23T20:49:30.851Z,10.50
2022-12-23T20:51:57.667Z,10.50
2022-12-23T20:54:31.721Z,10.50
2022-12-23T20:56:59.851Z,10.50
2022-12-23T20:59:26.649Z,10.50
2022-12-23T21:01:53.528Z,10.50
2022-12-23T21:04:20.589Z,10.40
2022-12-23T21:06:47.568Z,10.30
2022-12-23T21:09:14.580Z,10.20
2022-12-23T21:11:43.325Z,10.20
2022-12-23T21:14:10.472Z,10.20
2022-12-23T21:16:37.872Z,10.20
2022-12-23T21:19:08.710Z,10.20
2022-12-23T21:21:35.568Z,10.30
2022-12-23T21:24:04.947Z,10.30
2022-12-23T21:26:32.544Z,10.30
2022-12-23T21:29:00.108Z,10.30
2022-12-23T21:31:27.601Z,10.20
2022-12-23T21:33:54.626Z,10.20
2022-12-23T21:36:23.436Z,10.20
2022-12-23T21:38:50.375Z,10.20
2022-12-23T21:41:38.803Z,10.20
2022-12-23T21:44:05.784Z,10.20
2022-12-23T21:46:35.713Z,10.20
2022-12-23T21:49:02.546Z,10.20
2022-12-23T21:51:39.702Z,10.20
2022-12-23T21:54:07.341Z,10.30
2022-12-23T21:56:34.154Z,10.40
2022-12-23T21:59:03.145Z,10.30
2022-12-23T22:01:29.966Z,10.40
2022-12-23T22:03:56.913Z,10.40
2022-12-23T22:06:31.966Z,10.40
2022-12-23T22:08:59.028Z,10.30
2022-12-23T22:11:33.652Z,10.40
2022-12-23T22:14:01.105Z,10.30
2022-12-23T22:16:28.969Z,10.40
2022-12-23T22:18:56.204Z,10.40
2022-12-23T22:21:24.071Z,10.40
2022-12-23T22:23:51.683Z,10.50
2022-12-23T22:26:25.508Z,10.40
2022-12-23T22:28:54.242Z,10.40
2022-12-23T22:31:27.497Z,10.40
2022-12-23T22:33:54.382Z,10.40
2022-12-23T22:36:21.237Z,10.40
2022-12-23T22:38:53.069Z,10.40
2022-12-23T22:41:20.219Z,10.40
2022-12-23T22:43:47.111Z,10.50
2022-12-23T22:46:14.048Z,10.50
2022-12-23T22:48:41.015Z,10.40
2022-12-23T22:51:20.738Z,10.40
2022-12-23T22:53:47.700Z,10.40
2022-12-23T22:56:15.249Z,10.40
2022-12-23T22:58:42.256Z,10.40
2022-12-23T23:01:19.659Z,10.40
2022-12-23T23:03:46.584Z,10.30
2022-12-23T23:06:13.435Z,10.30
2022-12-23T23:08:41.677Z,10.30
2022-12-23T23:11:08.639Z,10.30
2022-12-23T23:13:35.694Z,10.30
2022-12-23T23:16:02.704Z,10.30
2022-12-23T23:18:29.741Z,10.30
2022-12-23T23:20:56.642Z,10.40
2022-12-23T23:23:23.625Z,10.30
2022-12-23T23:25:50.495Z,10.30
2022-12-23T23:28:17.462Z,10.10
2022-12-23T23:30:44.353Z,10.00
2022-12-23T23:33:11.429Z,9.90
2022-12-23T23:35:38.225Z,9.80
2022-12-23T23:38:05.099Z,9.80
2022-12-23T23:40:31.920Z,9.80
2022-12-23T23:42:58.722Z,9.80
2022-12-23T23:45:27.450Z,9.90
2022-12-23T23:47:55.307Z,10.00
2022-12-23T23:50:22.229Z,10.00
2022-12-23T23:52:49.094Z,10.10
2022-12-23T23:55:16.041Z,10.00
2022-12-23T23:57:42.861Z,10.00
